Time;durP1;ratioP1;P1;durP2;ratioP2;P2;SDS_P1;SDS_P2;PMS_P1;PMS_P2;Temp;Humidity;BMP_temperature;BMP_pressure;BME280_temperature;BME280_humidity;BME280_pressure;Samples;Min_cycle;Max_cycle;Signal;HPM_P1;HPM_P2
2023/07/23 00:00:35;;;;;;;13.40;10.50;;;;;;;;;;107506;1251;61257;-79
2023/07/23 00:03:21;;;;;;;18.10;10.00;;;;;;;;;;107512;1251;61270;-79
2023/07/23 00:05:49;;;;;;;15.20;10.70;;;;;;;;;;107538;1251;61336;-79
2023/07/23 00:08:16;;;;;;;12.70;9.50;;;;;;;;;;107522;1251;61270;-79
2023/07/23 00:10:42;;;;;;;14.70;10.60;;;;;;;;;;106921;1251;61236;-80
2023/07/23 00:13:09;;;;;;;13.50;8.90;;;;;;;;;;107055;1254;61208;-78
2023/07/23 00:15:35;;;;;;;16.30;10.40;;;;;;;;;;107015;1253;61260;-79
2023/07/23 00:18:03;;;;;;;15.10;8.70;;;;;;;;;;106877;1251;61323;-79
2023/07/23 00:20:29;;;;;;;12.80;9.10;;;;;;;;;;106892;1253;61257;-78
2023/07/23 00:22:56;;;;;;;12.30;9.40;;;;;;;;;;106865;1254;61663;-79
2023/07/23 00:25:22;;;;;;;12.00;9.30;;;;;;;;;;106839;1254;61269;-78
2023/07/23 00:27:48;;;;;;;12.60;9.60;;;;;;;;;;106899;1251;61337;-78
2023/07/23 00:30:15;;;;;;;12.80;10.40;;;;;;;;;;106856;1253;61227;-78
2023/07/23 00:32:41;;;;;;;14.90;9.70;;;;;;;;;;106847;1251;61356;-79
2023/07/23 00:35:08;;;;;;;12.70;9.20;;;;;;;;;;106907;1254;62283;-78
2023/07/23 00:37:34;;;;;;;13.00;9.40;;;;;;;;;;106876;1251;61340;-79
2023/07/23 00:40:00;;;;;;;16.60;10.20;;;;;;;;;;106840;1250;61400;-79
2023/07/23 00:42:27;;;;;;;13.40;8.80;;;;;;;;;;106883;1254;61516;-79
2023/07/23 00:44:53;;;;;;;12.60;9.30;;;;;;;;;;106898;1250;61422;-79
2023/07/23 00:47:20;;;;;;;14.70;10.00;;;;;;;;;;106866;1253;61444;-79
2023/07/23 00:49:46;;;;;;;13.10;10.30;;;;;;;;;;106895;1250;61317;-79
2023/07/23 00:52:13;;;;;;;17.10;10.40;;;;;;;;;;106858;1250;61355;-79
2023/07/23 00:54:39;;;;;;;12.90;9.30;;;;;;;;;;109382;1254;61297;-78
2023/07/23 00:57:06;;;;;;;12.00;8.70;;;;;;;;;;109890;1250;58821;-79
2023/07/23 00:59:32;;;;;;;11.00;7.90;;;;;;;;;;108484;1251;59634;-78
2023/07/23 01:01:59;;;;;;;14.80;9.50;;;;;;;;;;106879;1250;61458;-79
2023/07/23 01:04:26;;;;;;;15.00;8.90;;;;;;;;;;106880;1251;61351;-79
2023/07/23 01:06:52;;;;;;;12.50;8.80;;;;;;;;;;109861;1249;59361;-79
2023/07/23 01:09:19;;;;;;;14.70;9.20;;;;;;;;;;109855;1249;58909;-79
2023/07/23 01:11:45;;;;;;;13.90;9.10;;;;;;;;;;109527;1253;59218;-79
2023/07/23 01:14:12;;;;;;;12.90;9.20;;;;;;;;;;107766;1250;61145;-79
2023/07/23 01:16:39;;;;;;;12.00;7.80;;;;;;;;;;106881;1250;61095;-78
2023/07/23 01:19:05;;;;;;;14.30;9.10;;;;;;;;;;107433;1250;61323;-79
2023/07/23 01:21:32;;;;;;;11.10;8.40;;;;;;;;;;109873;1249;58915;-79
2023/07/23 01:23:58;;;;;;;13.70;9.70;;;;;;;;;;109856;1251;58799;-79
2023/07/23 01:26:25;;;;;;;13.10;9.00;;;;;;;;;;109892;1249;59093;-79
2023/07/23 01:28:51;;;;;;;11.50;8.30;;;;;;;;;;109882;1250;58905;-80
2023/07/23 01:31:17;;;;;;;17.70;8.80;;;;;;;;;;109858;1249;58979;-79
2023/07/23 01:33:44;;;;;;;14.90;9.20;;;;;;;;;;109892;1250;59121;-79
2023/07/23 01:36:10;;;;;;;11.30;8.70;;;;;;;;;;108231;1251;59531;-79
2023/07/23 01:38:37;;;;;;;12.50;8.60;;;;;;;;;;106916;1250;61234;-79
2023/07/23 01:41:03;;;;;;;10.70;8.50;;;;;;;;;;106885;1254;61338;-80
2023/07/23 01:43:30;;;;;;;12.50;8.30;;;;;;;;;;106897;1250;61237;-79
2023/07/23 01:45:56;;;;;;;11.80;8.60;;;;;;;;;;106843;1254;61281;-79
2023/07/23 01:48:22;;;;;;;10.20;8.00;;;;;;;;;;106896;1250;61362;-78
2023/07/23 01:50:49;;;;;;;13.20;8.70;;;;;;;;;;106898;1250;61256;-78
2023/07/23 01:53:16;;;;;;;10.70;8.20;;;;;;;;;;109862;1249;58953;-79
2023/07/23 01:55:43;;;;;;;11.30;8.70;;;;;;;;;;109820;1249;59102;-79
2023/07/23 01:58:09;;;;;;;12.80;9.30;;;;;;;;;;109868;1249;58883;-80
2023/07/23 02:00:36;;;;;;;11.80;8.60;;;;;;;;;;109894;1249;58763;-79
2023/07/23 02:03:03;;;;;;;12.30;8.30;;;;;;;;;;109864;1250;59127;-80
2023/07/23 02:05:30;;;;;;;12.20;8.80;;;;;;;;;;109865;1249;59279;-80
2023/07/23 02:07:56;;;;;;;12.00;8.00;;;;;;;;;;109846;1249;58949;-79
2023/07/23 02:10:22;;;;;;;13.00;8.80;;;;;;;;;;109867;1250;58828;-79
2023/07/23 02:12:49;;;;;;;10.20;7.80;;;;;;;;;;110130;1249;58833;-79
2023/07/23 02:15:16;;;;;;;14.10;8.10;;;;;;;;;;110026;1249;59216;-77
2023/07/23 02:17:43;;;;;;;9.80;7.60;;;;;;;;;;109866;1249;59007;-77
2023/07/23 02:20:09;;;;;;;11.40;7.50;;;;;;;;;;109842;1249;59109;-77
2023/07/23 02:22:36;;;;;;;13.30;9.10;;;;;;;;;;109819;1249;59022;-77
2023/07/23 02:25:02;;;;;;;11.60;9.40;;;;;;;;;;109865;1249;58949;-78
2023/07/23 02:27:28;;;;;;;12.60;8.10;;;;;;;;;;109897;1249;59150;-79
2023/07/23 02:29:55;;;;;;;10.90;8.30;;;;;;;;;;109849;1249;58815;-79
2023/07/23 02:32:21;;;;;;;12.00;8.00;;;;;;;;;;109837;1249;59068;-80
2023/07/23 02:34:49;;;;;;;15.40;9.90;;;;;;;;;;109855;1249;59252;-79
2023/07/23 02:37:15;;;;;;;12.90;9.50;;;;;;;;;;108741;1250;59566;-77
2023/07/23 02:39:42;;;;;;;12.60;9.80;;;;;;;;;;106937;1250;61200;-78
2023/07/23 02:42:08;;;;;;;14.50;8.80;;;;;;;;;;106890;1254;59725;-79
2023/07/23 02:44:34;;;;;;;12.90;9.20;;;;;;;;;;108023;1249;61335;-79
2023/07/23 02:47:01;;;;;;;14.00;8.30;;;;;;;;;;109875;1250;59108;-79
2023/07/23 02:49:27;;;;;;;13.20;8.40;;;;;;;;;;109869;1249;58851;-79
2023/07/23 02:51:54;;;;;;;9.90;8.00;;;;;;;;;;109851;1249;59079;-79
2023/07/23 02:54:20;;;;;;;12.50;7.90;;;;;;;;;;109857;1249;59129;-79
2023/07/23 02:56:46;;;;;;;10.90;7.70;;;;;;;;;;109834;1249;59505;-79
2023/07/23 02:59:13;;;;;;;10.40;8.10;;;;;;;;;;109828;1251;58991;-79
2023/07/23 03:01:40;;;;;;;12.50;7.20;;;;;;;;;;109846;1249;59333;-79
2023/07/23 03:04:07;;;;;;;9.60;7.50;;;;;;;;;;109952;1249;61166;-80
2023/07/23 03:06:33;;;;;;;15.80;8.00;;;;;;;;;;109844;1250;59312;-79
2023/07/23 03:08:59;;;;;;;10.60;8.10;;;;;;;;;;109811;1249;58802;-79
2023/07/23 03:11:26;;;;;;;10.80;7.10;;;;;;;;;;109896;1248;59180;-80
2023/07/23 03:13:52;;;;;;;11.80;8.40;;;;;;;;;;110137;1249;58984;-79
2023/07/23 03:16:19;;;;;;;12.10;8.60;;;;;;;;;;109906;1249;58903;-79
2023/07/23 03:18:46;;;;;;;10.90;7.50;;;;;;;;;;109869;1249;59071;-79
2023/07/23 03:21:12;;;;;;;11.50;8.80;;;;;;;;;;109830;1249;58823;-79
2023/07/23 03:23:38;;;;;;;12.40;8.30;;;;;;;;;;109861;1249;58964;-79
2023/07/23 03:26:05;;;;;;;11.60;8.90;;;;;;;;;;109819;1249;58915;-79
2023/07/23 03:28:31;;;;;;;12.70;7.80;;;;;;;;;;109871;1249;59015;-79
2023/07/23 03:30:58;;;;;;;10.70;7.50;;;;;;;;;;109855;1249;59042;-79
2023/07/23 03:33:25;;;;;;;15.10;7.60;;;;;;;;;;109860;1249;58857;-79
2023/07/23 03:35:51;;;;;;;12.00;7.70;;;;;;;;;;109870;1249;59276;-79
2023/07/23 03:38:17;;;;;;;15.10;8.20;;;;;;;;;;109888;1249;58752;-79
2023/07/23 03:40:44;;;;;;;11.10;7.70;;;;;;;;;;109855;1249;59077;-79
2023/07/23 03:43:10;;;;;;;11.80;8.40;;;;;;;;;;109831;1249;58886;-80
2023/07/23 03:45:37;;;;;;;11.00;7.80;;;;;;;;;;109869;1249;59067;-79
2023/07/23 03:48:04;;;;;;;13.30;8.50;;;;;;;;;;109844;1252;59056;-79
2023/07/23 03:50:31;;;;;;;9.50;7.50;;;;;;;;;;109784;1251;58800;-79
2023/07/23 03:52:57;;;;;;;12.80;8.10;;;;;;;;;;106955;1252;61261;-79
2023/07/23 03:55:24;;;;;;;11.60;8.50;;;;;;;;;;106899;1250;63437;-79
2023/07/23 03:57:50;;;;;;;10.30;7.60;;;;;;;;;;106816;1254;61222;-78
2023/07/23 04:00:16;;;;;;;10.10;8.00;;;;;;;;;;106845;1253;61372;-79
2023/07/23 04:02:43;;;;;;;16.40;8.80;;;;;;;;;;106851;1250;61216;-78
2023/07/23 04:05:09;;;;;;;14.20;10.70;;;;;;;;;;106860;1250;61302;-79
2023/07/23 04:07:35;;;;;;;20.50;16.90;;;;;;;;;;106817;1249;61289;-79
2023/07/23 04:10:03;;;;;;;24.80;20.40;;;;;;;;;;106904;1254;61275;-78
2023/07/23 04:12:33;;;;;;;32.20;26.70;;;;;;;;;;106883;1250;61253;-79
2023/07/23 04:15:02;;;;;;;27.30;24.40;;;;;;;;;;109814;1249;58897;-79
2023/07/23 04:17:29;;;;;;;23.80;20.20;;;;;;;;;;109878;1249;58930;-79
2023/07/23 04:19:56;;;;;;;21.30;17.60;;;;;;;;;;109838;1249;59525;-79
2023/07/23 04:22:23;;;;;;;25.90;20.60;;;;;;;;;;109738;1249;61950;-79
2023/07/23 04:24:49;;;;;;;24.60;21.90;;;;;;;;;;106885;1249;61286;-78
2023/07/23 04:27:15;;;;;;;23.40;19.60;;;;;;;;;;106828;1250;61588;-79
2023/07/23 04:29:42;;;;;;;19.70;17.10;;;;;;;;;;106812;1249;62245;-79
2023/07/23 04:32:08;;;;;;;26.20;23.40;;;;;;;;;;106871;1253;61401;-78
2023/07/23 04:34:35;;;;;;;26.10;22.80;;;;;;;;;;106775;1250;61276;-79
2023/07/23 04:37:01;;;;;;;28.40;21.90;;;;;;;;;;106791;1253;61590;-79
2023/07/23 04:39:28;;;;;;;28.80;22.70;;;;;;;;;;106832;1250;61129;-78
2023/07/23 04:41:54;;;;;;;28.40;22.40;;;;;;;;;;106835;1250;61148;-79
2023/07/23 04:44:21;;;;;;;24.10;20.60;;;;;;;;;;106897;1253;61206;-79
2023/07/23 04:46:47;;;;;;;19.70;16.00;;;;;;;;;;106895;1249;61326;-78
2023/07/23 04:49:13;;;;;;;17.60;14.70;;;;;;;;;;106809;1253;61343;-79
2023/07/23 04:51:40;;;;;;;18.80;15.60;;;;;;;;;;106852;1250;61212;-78
2023/07/23 04:54:07;;;;;;;18.40;14.10;;;;;;;;;;106839;1252;61293;-79
2023/07/23 04:56:33;;;;;;;17.80;14.40;;;;;;;;;;106859;1250;61343;-79
2023/07/23 04:59:00;;;;;;;18.60;14.40;;;;;;;;;;106878;1250;61227;-79
2023/07/23 05:01:26;;;;;;;18.30;15.00;;;;;;;;;;106928;1249;61360;-79
2023/07/23 05:03:52;;;;;;;14.00;12.00;;;;;;;;;;107096;1249;61367;-79
2023/07/23 05:06:19;;;;;;;14.70;12.60;;;;;;;;;;107099;1250;61179;-79
2023/07/23 05:08:45;;;;;;;12.40;9.50;;;;;;;;;;106962;1250;61341;-80
2023/07/23 05:11:11;;;;;;;9.50;7.70;;;;;;;;;;107037;1253;61279;-79
2023/07/23 05:13:38;;;;;;;8.80;6.80;;;;;;;;;;107018;1249;61259;-79
2023/07/23 05:16:05;;;;;;;10.00;7.50;;;;;;;;;;107009;1250;61543;-80
2023/07/23 05:18:31;;;;;;;10.00;7.60;;;;;;;;;;107006;1249;61344;-79
2023/07/23 05:20:58;;;;;;;8.50;6.70;;;;;;;;;;106910;1253;61273;-79
2023/07/23 05:23:24;;;;;;;10.60;6.50;;;;;;;;;;106795;1254;61356;-80
2023/07/23 05:25:50;;;;;;;7.90;6.40;;;;;;;;;;107466;1249;61251;-79
2023/07/23 05:28:17;;;;;;;10.70;7.10;;;;;;;;;;106882;1250;61416;-78
2023/07/23 05:30:43;;;;;;;10.40;6.80;;;;;;;;;;106853;1253;61420;-79
2023/07/23 05:33:10;;;;;;;8.30;6.10;;;;;;;;;;107474;1251;61191;-79
2023/07/23 05:35:36;;;;;;;9.00;6.40;;;;;;;;;;107591;1250;61375;-78
2023/07/23 05:38:03;;;;;;;12.10;6.80;;;;;;;;;;107447;1249;61216;-79
2023/07/23 05:40:31;;;;;;;7.10;6.20;;;;;;;;;;107519;1249;61251;-79
2023/07/23 05:42:58;;;;;;;9.00;6.40;;;;;;;;;;107471;1253;61197;-79
2023/07/23 05:45:24;;;;;;;8.50;6.60;;;;;;;;;;107522;1250;61332;-79
2023/07/23 05:47:51;;;;;;;9.80;6.20;;;;;;;;;;107495;1249;61224;-80
2023/07/23 05:50:17;;;;;;;9.30;6.20;;;;;;;;;;107541;1249;61369;-79
2023/07/23 05:52:44;;;;;;;8.70;6.10;;;;;;;;;;107442;1251;61242;-79
2023/07/23 05:55:10;;;;;;;10.00;7.10;;;;;;;;;;108007;1249;61146;-79
2023/07/23 05:57:36;;;;;;;8.90;6.40;;;;;;;;;;107457;1249;61216;-79
2023/07/23 06:00:04;;;;;;;9.60;5.80;;;;;;;;;;108202;1254;61371;-79
2023/07/23 06:02:31;;;;;;;8.60;6.30;;;;;;;;;;107503;1252;61264;-79
2023/07/23 06:04:57;;;;;;;9.30;6.00;;;;;;;;;;107521;1249;61189;-79
2023/07/23 06:07:23;;;;;;;12.30;6.50;;;;;;;;;;107443;1253;61296;-79
2023/07/23 06:09:50;;;;;;;10.10;6.40;;;;;;;;;;107565;1249;61344;-79
2023/07/23 06:12:16;;;;;;;10.00;5.70;;;;;;;;;;107526;1249;61446;-80
2023/07/23 06:14:42;;;;;;;8.40;6.20;;;;;;;;;;107513;1253;59819;-80
2023/07/23 06:17:09;;;;;;;8.70;6.20;;;;;;;;;;107490;1249;61391;-79
2023/07/23 06:19:35;;;;;;;8.90;5.50;;;;;;;;;;107462;1254;61355;-80
2023/07/23 06:22:02;;;;;;;7.60;6.20;;;;;;;;;;107496;1254;61683;-80
2023/07/23 06:24:28;;;;;;;7.10;5.80;;;;;;;;;;107442;1250;61350;-79
2023/07/23 06:26:54;;;;;;;12.20;7.30;;;;;;;;;;107404;1249;61254;-80
2023/07/23 06:29:21;;;;;;;9.30;6.70;;;;;;;;;;107494;1251;61235;-79
2023/07/23 06:31:47;;;;;;;9.50;6.10;;;;;;;;;;107467;1249;61639;-79
2023/07/23 06:34:14;;;;;;;7.60;6.20;;;;;;;;;;107490;1249;61139;-80
2023/07/23 06:36:40;;;;;;;12.80;6.60;;;;;;;;;;107472;1253;62335;-79
2023/07/23 06:39:07;;;;;;;9.00;6.00;;;;;;;;;;107498;1250;61378;-80
2023/07/23 06:41:33;;;;;;;7.30;5.70;;;;;;;;;;107404;1249;61167;-80
2023/07/23 06:44:00;;;;;;;8.90;5.60;;;;;;;;;;107425;1249;61221;-80
2023/07/23 06:46:26;;;;;;;12.50;5.70;;;;;;;;;;107445;1249;61256;-80
2023/07/23 06:48:52;;;;;;;7.40;5.40;;;;;;;;;;107404;1250;61389;-80
2023/07/23 06:51:19;;;;;;;5.90;5.20;;;;;;;;;;107463;1250;61340;-79
2023/07/23 06:53:45;;;;;;;8.90;5.50;;;;;;;;;;107416;1249;61236;-80
2023/07/23 06:56:13;;;;;;;7.90;5.20;;;;;;;;;;107440;1249;61328;-80
2023/07/23 06:58:39;;;;;;;9.00;5.90;;;;;;;;;;107466;1251;61360;-80
2023/07/23 07:01:06;;;;;;;7.00;5.30;;;;;;;;;;107472;1249;61192;-80
2023/07/23 07:03:32;;;;;;;7.60;5.60;;;;;;;;;;107508;1249;61262;-80
2023/07/23 07:05:59;;;;;;;9.20;5.60;;;;;;;;;;107462;1249;61320;-80
2023/07/23 07:08:26;;;;;;;9.00;5.60;;;;;;;;;;107466;1249;61350;-79
2023/07/23 07:10:58;;;;;;;8.30;5.70;;;;;;;;;;107280;1249;160783;-80
2023/07/23 07:13:25;;;;;;;8.20;5.60;;;;;;;;;;107445;1249;61287;-80
2023/07/23 07:15:52;;;;;;;10.70;5.70;;;;;;;;;;107408;1250;61245;-80
2023/07/23 07:18:18;;;;;;;9.00;5.20;;;;;;;;;;107487;1253;61242;-80
2023/07/23 07:20:51;;;;;;;9.70;5.50;;;;;;;;;;107402;1251;61229;-80
2023/07/23 07:23:18;;;;;;;8.00;5.20;;;;;;;;;;107443;1249;61371;-80
2023/07/23 07:25:44;;;;;;;8.30;5.80;;;;;;;;;;107676;1249;60256;-80
2023/07/23 07:28:11;;;;;;;7.10;5.60;;;;;;;;;;107409;1250;61329;-79
2023/07/23 07:30:39;;;;;;;6.50;5.40;;;;;;;;;;107452;1254;61351;-80
2023/07/23 07:33:05;;;;;;;6.10;4.70;;;;;;;;;;107469;1249;61227;-80
2023/07/23 07:35:32;;;;;;;8.10;4.80;;;;;;;;;;107444;1249;61293;-79
2023/07/23 07:37:58;;;;;;;8.30;5.60;;;;;;;;;;107417;1249;61242;-80
2023/07/23 07:40:27;;;;;;;10.70;6.20;;;;;;;;;;107468;1249;61904;-80
2023/07/23 07:42:53;;;;;;;;;;;;;;;;;;107470;1250;61103;-80
2023/07/23 07:45:20;;;;;;;6.60;5.40;;;;;;;;;;107440;1250;59622;-80
2023/07/23 07:47:46;;;;;;;6.20;4.80;;;;;;;;;;107403;1252;61376;-80
2023/07/23 07:50:12;;;;;;;5.40;4.80;;;;;;;;;;107432;1250;61216;-80
2023/07/23 07:52:39;;;;;;;6.10;4.20;;;;;;;;;;107402;1253;61291;-80
2023/07/23 07:55:06;;;;;;;7.30;4.90;;;;;;;;;;107429;1253;61081;-80
2023/07/23 07:57:33;;;;;;;6.30;4.00;;;;;;;;;;107476;1249;61320;-80
2023/07/23 08:00:03;;;;;;;5.20;3.70;;;;;;;;;;107479;1249;61276;-80
2023/07/23 08:02:29;;;;;;;5.50;4.00;;;;;;;;;;107418;1250;61225;-80
2023/07/23 08:04:56;;;;;;;4.60;4.00;;;;;;;;;;107774;1253;61430;-80
2023/07/23 08:07:23;;;;;;;7.80;5.00;;;;;;;;;;107442;1249;59147;-80
2023/07/23 08:09:49;;;;;;;5.20;4.40;;;;;;;;;;107651;1253;61240;-80
2023/07/23 08:12:16;;;;;;;8.60;3.90;;;;;;;;;;107626;1249;60788;-80
2023/07/23 08:14:42;;;;;;;8.90;4.00;;;;;;;;;;107556;1250;61366;-80
2023/07/23 08:17:09;;;;;;;5.60;3.80;;;;;;;;;;107494;1249;61341;-80
2023/07/23 08:19:35;;;;;;;9.70;4.00;;;;;;;;;;107398;1255;59444;-80
2023/07/23 08:22:02;;;;;;;5.90;3.40;;;;;;;;;;107511;1249;61196;-80
2023/07/23 08:24:28;;;;;;;4.60;3.10;;;;;;;;;;107466;1249;61276;-80
2023/07/23 08:26:55;;;;;;;3.60;2.90;;;;;;;;;;107338;1253;61221;-80
2023/07/23 08:29:21;;;;;;;6.40;3.50;;;;;;;;;;107364;1254;61282;-81
2023/07/23 08:31:48;;;;;;;8.40;3.30;;;;;;;;;;107377;1253;61305;-81
2023/07/23 08:34:14;;;;;;;5.40;2.90;;;;;;;;;;107449;1249;61305;-81
2023/07/23 08:36:41;;;;;;;6.10;2.80;;;;;;;;;;107435;1250;61248;-81
2023/07/23 08:39:07;;;;;;;4.00;2.60;;;;;;;;;;107421;1249;61338;-81
2023/07/23 08:41:37;;;;;;;3.70;2.80;;;;;;;;;;107368;1249;61223;-81
2023/07/23 08:44:10;;;;;;;4.90;2.40;;;;;;;;;;107442;1249;61198;-80
2023/07/23 08:46:42;;;;;;;4.10;2.90;;;;;;;;;;107434;1249;61274;-81
2023/07/23 08:49:10;;;;;;;6.80;3.00;;;;;;;;;;107433;1253;61323;-81
2023/07/23 08:51:44;;;;;;;6.30;2.70;;;;;;;;;;107377;1254;61369;-80
2023/07/23 08:54:11;;;;;;;5.60;3.70;;;;;;;;;;107376;1249;61230;-81
2023/07/23 08:56:39;;;;;;;3.40;2.20;;;;;;;;;;107441;1249;61376;-81
2023/07/23 08:59:06;;;;;;;3.10;2.20;;;;;;;;;;107437;1251;61083;-81
2023/07/23 09:01:33;;;;;;;6.00;2.40;;;;;;;;;;107380;1254;61783;-81
2023/07/23 09:04:00;;;;;;;5.80;2.40;;;;;;;;;;107457;1250;61331;-81
2023/07/23 09:06:28;;;;;;;4.00;2.10;;;;;;;;;;107446;1250;61332;-81
2023/07/23 09:08:59;;;;;;;5.30;2.50;;;;;;;;;;107445;1249;61166;-81
2023/07/23 09:11:25;;;;;;;4.40;2.10;;;;;;;;;;107362;1249;61147;-81
2023/07/23 09:13:52;;;;;;;3.70;2.60;;;;;;;;;;107444;1250;61140;-81
2023/07/23 09:16:22;;;;;;;2.90;1.80;;;;;;;;;;107390;1256;61329;-81
2023/07/23 09:18:49;;;;;;;3.60;2.30;;;;;;;;;;107432;1249;61235;-81
2023/07/23 09:21:22;;;;;;;5.00;2.00;;;;;;;;;;107381;1253;61086;-81
2023/07/23 09:23:52;;;;;;;2.90;1.50;;;;;;;;;;107442;1251;61261;-81
2023/07/23 09:26:23;;;;;;;4.90;2.00;;;;;;;;;;107484;1249;61569;-81
2023/07/23 09:28:51;;;;;;;6.20;2.60;;;;;;;;;;107516;1249;61295;-81
2023/07/23 09:31:18;;;;;;;;;;;;;;;;;;107430;1250;61304;-81
2023/07/23 09:33:44;;;;;;;4.70;2.40;;;;;;;;;;107443;1250;59579;-82
2023/07/23 09:36:10;;;;;;;5.10;2.30;;;;;;;;;;107452;1249;61264;-81
2023/07/23 09:38:39;;;;;;;12.00;10.80;;;;;;;;;;107451;1249;61338;-82
2023/07/23 09:41:05;;;;;;;3.90;2.30;;;;;;;;;;107432;1250;61111;-81
2023/07/23 09:43:33;;;;;;;4.60;3.20;;;;;;;;;;107506;1250;61327;-81
2023/07/23 09:46:00;;;;;;;;;;;;;;;;;;107469;1250;61243;-81
2023/07/23 09:48:26;;;;;;;3.10;2.20;;;;;;;;;;107457;1250;61160;-80
2023/07/23 09:50:56;;;;;;;6.50;1.70;;;;;;;;;;107498;1249;61334;-80
2023/07/23 09:53:22;;;;;;;6.30;3.60;;;;;;;;;;107437;1250;61091;-81
2023/07/23 09:55:49;;;;;;;7.10;3.10;;;;;;;;;;107482;1250;59185;-81
2023/07/23 09:58:16;;;;;;;5.80;4.20;;;;;;;;;;107502;1249;61269;-81
2023/07/23 10:00:43;;;;;;;3.60;2.70;;;;;;;;;;107423;1255;61305;-81
2023/07/23 10:03:09;;;;;;;3.00;2.30;;;;;;;;;;107473;1253;61145;-81
2023/07/23 10:05:36;;;;;;;4.80;2.60;;;;;;;;;;107459;1249;59496;-81
2023/07/23 10:08:05;;;;;;;3.40;2.40;;;;;;;;;;107388;1249;61252;-81
2023/07/23 10:10:31;;;;;;;3.40;2.40;;;;;;;;;;107433;1250;61270;-81
2023/07/23 10:12:58;;;;;;;2.70;2.00;;;;;;;;;;107377;1250;61223;-80
2023/07/23 10:15:24;;;;;;;4.40;2.80;;;;;;;;;;107441;1250;61256;-80
2023/07/23 10:17:54;;;;;;;2.30;1.90;;;;;;;;;;107455;1250;61351;-81
2023/07/23 10:20:21;;;;;;;5.20;3.40;;;;;;;;;;107444;1251;61217;-82
2023/07/23 10:22:48;;;;;;;5.60;2.60;;;;;;;;;;107467;1250;61352;-81
2023/07/23 10:25:30;;;;;;;5.00;2.60;;;;;;;;;;107452;1249;61244;-82
2023/07/23 10:28:04;;;;;;;4.00;2.20;;;;;;;;;;107423;1249;61314;-81
2023/07/23 10:30:30;;;;;;;6.50;2.50;;;;;;;;;;107474;1250;61152;-81
2023/07/23 10:33:17;;;;;;;3.70;2.30;;;;;;;;;;107460;1254;61231;-82
2023/07/23 10:35:53;;;;;;;4.00;2.60;;;;;;;;;;107679;1249;61172;-81
2023/07/23 10:38:22;;;;;;;3.40;2.30;;;;;;;;;;107535;1254;61081;-82
2023/07/23 10:40:49;;;;;;;3.60;2.60;;;;;;;;;;107514;1249;61101;-81
2023/07/23 10:43:16;;;;;;;3.00;2.20;;;;;;;;;;107511;1254;61379;-81
2023/07/23 10:46:02;;;;;;;3.00;2.20;;;;;;;;;;107575;1254;61216;-81
2023/07/23 10:48:51;;;;;;;4.20;2.40;;;;;;;;;;107510;1254;61085;-82
2023/07/23 10:51:18;;;;;;;3.50;2.40;;;;;;;;;;107490;1249;61861;-81
2023/07/23 10:54:04;;;;;;;3.10;1.90;;;;;;;;;;107491;1250;61330;-81
2023/07/23 10:56:32;;;;;;;3.40;2.00;;;;;;;;;;107538;1254;62484;-82
2023/07/23 10:58:58;;;;;;;;;;;;;;;;;;107501;1251;61254;-82
2023/07/23 11:01:25;;;;;;;3.50;2.40;;;;;;;;;;107529;1250;61259;-82
2023/07/23 11:03:52;;;;;;;4.60;2.50;;;;;;;;;;107565;1250;61297;-80
2023/07/23 11:06:25;;;;;;;4.30;2.30;;;;;;;;;;107700;1250;61315;-81
2023/07/23 11:08:52;;;;;;;5.10;2.20;;;;;;;;;;107466;1249;61998;-82
2023/07/23 11:11:20;;;;;;;3.60;2.70;;;;;;;;;;107405;1249;61300;-81
2023/07/23 11:13:47;;;;;;;4.00;2.80;;;;;;;;;;107416;1250;61209;-80
2023/07/23 11:16:13;;;;;;;4.10;2.80;;;;;;;;;;107391;1254;61240;-81
2023/07/23 11:18:40;;;;;;;3.60;2.60;;;;;;;;;;107367;1249;61124;-80
2023/07/23 11:21:11;;;;;;;3.90;2.70;;;;;;;;;;107437;1249;61991;-81
2023/07/23 11:23:37;;;;;;;4.60;2.80;;;;;;;;;;108175;1249;61079;-80
2023/07/23 11:26:03;;;;;;;6.00;3.10;;;;;;;;;;107371;1250;61230;-80
2023/07/23 11:28:32;;;;;;;18.00;3.10;;;;;;;;;;107439;1250;61344;-80
2023/07/23 11:30:59;;;;;;;5.60;2.80;;;;;;;;;;107378;1249;61158;-80
2023/07/23 11:33:30;;;;;;;4.90;3.10;;;;;;;;;;107463;1249;61216;-80
2023/07/23 11:35:57;;;;;;;6.40;2.60;;;;;;;;;;107445;1250;61218;-81
2023/07/23 11:38:27;;;;;;;5.20;2.90;;;;;;;;;;107423;1254;61257;-80
2023/07/23 11:40:57;;;;;;;3.90;2.90;;;;;;;;;;107399;1249;61254;-81
2023/07/23 11:43:23;;;;;;;7.60;3.20;;;;;;;;;;107464;1254;59187;-81
2023/07/23 11:45:51;;;;;;;4.80;3.00;;;;;;;;;;107371;1250;61348;-80
2023/07/23 11:48:18;;;;;;;4.20;3.10;;;;;;;;;;107404;1249;61301;-81
2023/07/23 11:50:45;;;;;;;7.90;3.20;;;;;;;;;;107611;1250;61198;-81
2023/07/23 11:53:11;;;;;;;3.60;3.00;;;;;;;;;;107447;1249;61334;-81
2023/07/23 11:55:38;;;;;;;3.50;2.70;;;;;;;;;;107428;1249;61346;-81
2023/07/23 11:58:04;;;;;;;5.10;2.80;;;;;;;;;;107539;1251;59415;-81
2023/07/23 12:00:39;;;;;;;5.20;2.70;;;;;;;;;;107513;1253;59411;-81
2023/07/23 12:03:08;;;;;;;3.70;2.90;;;;;;;;;;107369;1253;61242;-81
2023/07/23 12:05:38;;;;;;;3.90;2.70;;;;;;;;;;107837;1251;61359;-81
2023/07/23 12:08:05;;;;;;;4.00;2.90;;;;;;;;;;107386;1251;61126;-82
2023/07/23 12:10:31;;;;;;;3.40;2.40;;;;;;;;;;107399;1254;61314;-82
2023/07/23 12:12:59;;;;;;;5.30;2.70;;;;;;;;;;107466;1253;61220;-81
2023/07/23 12:15:25;;;;;;;2.40;2.10;;;;;;;;;;107500;1255;61160;-81
2023/07/23 12:17:52;;;;;;;2.90;2.50;;;;;;;;;;107490;1251;61233;-82
2023/07/23 12:20:19;;;;;;;3.90;2.40;;;;;;;;;;107421;1252;61230;-81
2023/07/23 12:22:49;;;;;;;4.80;2.80;;;;;;;;;;107376;1253;61341;-81
2023/07/23 12:25:16;;;;;;;4.40;2.70;;;;;;;;;;107430;1253;61671;-82
2023/07/23 12:27:42;;;;;;;2.70;2.20;;;;;;;;;;107430;1255;61192;-81
2023/07/23 12:30:09;;;;;;;3.90;2.80;;;;;;;;;;107409;1255;61227;-81
2023/07/23 12:32:35;;;;;;;10.00;2.80;;;;;;;;;;107389;1251;61266;-81
2023/07/23 12:35:02;;;;;;;3.60;2.30;;;;;;;;;;107384;1251;61317;-81
2023/07/23 12:37:30;;;;;;;3.60;2.80;;;;;;;;;;107315;1255;61242;-81
2023/07/23 12:39:56;;;;;;;3.20;2.50;;;;;;;;;;107411;1251;63419;-81
2023/07/23 12:42:23;;;;;;;4.10;3.10;;;;;;;;;;107442;1255;63069;-81
2023/07/23 12:44:49;;;;;;;4.20;2.70;;;;;;;;;;107362;1253;61212;-81
2023/07/23 12:47:16;;;;;;;3.40;2.60;;;;;;;;;;107382;1251;61124;-81
2023/07/23 12:49:43;;;;;;;4.60;3.00;;;;;;;;;;107429;1250;61959;-81
2023/07/23 12:52:10;;;;;;;3.60;2.70;;;;;;;;;;107439;1253;61155;-81
2023/07/23 12:54:36;;;;;;;3.50;2.30;;;;;;;;;;107431;1252;61363;-81
2023/07/23 12:57:03;;;;;;;5.60;2.60;;;;;;;;;;107347;1255;61245;-81
2023/07/23 12:59:30;;;;;;;3.50;2.60;;;;;;;;;;107378;1253;61313;-81
2023/07/23 13:01:56;;;;;;;3.30;2.50;;;;;;;;;;107462;1253;61314;-81
2023/07/23 13:04:23;;;;;;;3.20;2.50;;;;;;;;;;107428;1250;61359;-82
2023/07/23 13:06:49;;;;;;;7.50;2.80;;;;;;;;;;107465;1250;61241;-81
2023/07/23 13:09:16;;;;;;;5.20;3.20;;;;;;;;;;107422;1253;61172;-81
2023/07/23 13:11:43;;;;;;;4.90;2.60;;;;;;;;;;107448;1249;61578;-81
2023/07/23 13:14:09;;;;;;;4.60;2.80;;;;;;;;;;107463;1249;61381;-81
2023/07/23 13:16:36;;;;;;;4.60;2.40;;;;;;;;;;108104;1250;61186;-81
2023/07/23 13:19:02;;;;;;;4.60;2.20;;;;;;;;;;107575;1253;61211;-81
2023/07/23 13:21:28;;;;;;;6.30;2.20;;;;;;;;;;107447;1254;61326;-81
2023/07/23 13:23:55;;;;;;;7.30;2.70;;;;;;;;;;107460;1249;61221;-81
2023/07/23 13:26:21;;;;;;;3.00;2.50;;;;;;;;;;107461;1253;61339;-81
2023/07/23 13:28:48;;;;;;;4.60;2.80;;;;;;;;;;107431;1250;61306;-81
2023/07/23 13:31:19;;;;;;;4.20;2.40;;;;;;;;;;107444;1249;62947;-81
2023/07/23 13:33:45;;;;;;;3.30;1.80;;;;;;;;;;107471;1250;61238;-81
2023/07/23 13:36:12;;;;;;;4.90;2.20;;;;;;;;;;107427;1250;61157;-81
2023/07/23 13:38:38;;;;;;;2.90;2.00;;;;;;;;;;107392;1251;61313;-81
2023/07/23 13:41:04;;;;;;;3.80;2.00;;;;;;;;;;107378;1250;61197;-81
2023/07/23 13:43:31;;;;;;;3.40;2.20;;;;;;;;;;107466;1253;61350;-81
2023/07/23 13:45:57;;;;;;;4.80;2.20;;;;;;;;;;107442;1251;61378;-82
2023/07/23 13:48:24;;;;;;;4.40;2.30;;;;;;;;;;107370;1249;61549;-81
2023/07/23 13:50:50;;;;;;;4.20;2.00;;;;;;;;;;107489;1250;61258;-81
2023/07/23 13:53:16;;;;;;;5.00;2.30;;;;;;;;;;107390;1254;61237;-81
2023/07/23 13:55:43;;;;;;;3.70;2.10;;;;;;;;;;107456;1249;61219;-81
2023/07/23 13:58:09;;;;;;;2.70;2.10;;;;;;;;;;107497;1250;61349;-81
2023/07/23 14:00:36;;;;;;;2.70;2.40;;;;;;;;;;107482;1255;61228;-81
2023/07/23 14:03:03;;;;;;;4.40;2.80;;;;;;;;;;107468;1254;61324;-81
2023/07/23 14:05:29;;;;;;;3.30;2.40;;;;;;;;;;107510;1249;61091;-81
2023/07/23 14:07:58;;;;;;;3.30;2.30;;;;;;;;;;107364;1251;61288;-81
2023/07/23 14:10:25;;;;;;;3.70;2.70;;;;;;;;;;107600;1251;61119;-81
2023/07/23 14:12:51;;;;;;;2.80;2.30;;;;;;;;;;107513;1249;61199;-81
2023/07/23 14:15:17;;;;;;;4.40;2.50;;;;;;;;;;107481;1249;61342;-81
2023/07/23 14:17:44;;;;;;;5.10;2.70;;;;;;;;;;107469;1253;61631;-81
2023/07/23 14:20:10;;;;;;;6.80;5.40;;;;;;;;;;107846;1250;59218;-81
2023/07/23 14:22:38;;;;;;;3.60;2.80;;;;;;;;;;107938;1251;61321;-81